San Francisco, CA

7:58 AM PDT en Octubre 31, 2014 (GMT -0700)
SOMA - Near Van Ness | Change Station
CLOSE
Current Station
Estación meteorológica personal
Location: San Francisco, CA
Altura: 49 ft
Estaciones meteorológicas cercanas

Alt 49 ft 37.77 °N, 122.42 °W | Updated 31 seconds ago

Nublado
Nublado
62.6 ° F
Sensación térmica 62.6 ° F
N
0.0
Viento Variable Viento desde ENE
Gusts 0.0 mph

Hoy
Alta -- | Baja -- ° F
--% Posibilidad de precipitaciones
Ayer
Alta -- | Baja -- ° F
Precip. -- pul
7:34 AM 6:11 PM
Cuarto creciente, 56% visible
Presión 29.86 pul
Visibilidad 10.0 Millas
Nubes Baja 1700 ft
Nubes dispersas 2100 ft
Muy nublado 10000 ft
Punto de rocío 57 ° F
Humedad 83%
Precipitaciones 0.00 pul
Espesor de la nieve No disponible.
UV 0 de una escala de 12
Polen .50 de una escala de 12
Calidad del aire No disponible.
Flu Activity No disponible.
SPECI KSFO 311438Z 17010KT 10SM FEW017 SCT021 BKN100 18/14 A2986 RMK AO2

More Conditions Fewer Conditions

Presión 29.86 pul
Visibilidad 10.0 Millas
Nubes Baja 1700 ft
Nubes dispersas 2100 ft
Muy nublado 10000 ft
Punto de rocío 57 ° F
Humedad 83%
Precipitaciones 0.00 pul
Espesor de la nieve No disponible.
UV 0 de una escala de 12
Polen .50 de una escala de 12
Calidad del aire No disponible.
Flu Activity No disponible.
SPECI KSFO 311438Z 17010KT 10SM FEW017 SCT021 BKN100 18/14 A2986 RMK AO2

More Conditions Fewer Conditions

10-Day Weather Forecast

Almanac

Astronomía

Oct. 31, 2014 Salida Puesta
Hora real
Crepúsculo civil
Crepúsculo náutico
Crepúsculo astronómico
Luna
Horas de luz
Horas de luz
Tomorrow will be .
, % of the Moon is Illuminated

Extremos de hoy

Máximos del estado Bajos del estado

Community

WunderPhotos

Upload Photos

1,766,625 ¡fotos cargadas!

WunderBlogs® & News

Nearby

Calidad del aire

  Calidad del aire Índice AQ Contaminante
Not available.

Grosos de nieve

Estación Profundido Altura

Actividad de terremotos

Ciudad Distance Mag. Tiempo y dato
Magnitud mínima muestra es 2,5.

Temperaturas de aguas costeras

Lugar Temperatura

Estaciones meteorológicas cercanas